Latest Weather Observations for Nullo Mountain

IDN60801

Issued at 2:42 am EST Wednesday 18 July 2018 (issued every 10 minutes, with the page automatically refreshed every 10 minutes)

About weather observations | Map of weather stations | Latest weather observations for NSW | Other Formats
Station Details ID: 062100 Name: NULLO MOUNTAIN AWS Lat: -32.72 Lon: 150.23 Height: 1130.0 m
Data from the previous 72 hours. | See also: Recent months at Nullo Mountain
Date/Time
EST
Temp
°C
App
Temp
°C
Dew
Point
°C
Rel
Hum
%
Delta-T
°C
Wind Press
QNH
hPa
Press
MSL
hPa
Rain since
9am
mm
Dir  Spd
km/h
Gust
km/h
Spd
kts
Gust
kts
18/02:30am 8.1 1.9 -2.8 46 4.3 WNW 20 39 11 21 - - 0.0
18/02:00am 8.3 2.1 -2.9 45 4.4 WNW 20 35 11 19 - - 0.0
18/01:30am 8.3 2.1 -3.2 44 4.5 WNW 20 39 11 21 - - 0.0
18/01:00am 8.0 1.9 -4.1 42 4.6 WNW 19 39 10 21 - - 0.0
18/12:30am 7.9 1.5 -5.2 39 4.9 WNW 20 37 11 20 - - 0.0
18/12:00am 7.6 1.7 -6.1 37 5.0 WNW 17 35 9 19 - - 0.0
 
Date/Time
EST
Temp
°C
App
Temp
°C
Dew
Point
°C
Rel
Hum
%
Delta-T
°C
Wind Press
QNH
hPa
Press
MSL
hPa
Rain since
9am
mm
Dir  Spd
km/h
Gust
km/h
Spd
kts
Gust
kts
17/11:30pm 7.9 1.5 -6.6 35 5.2 WNW 19 41 10 22 - - 0.0
17/11:00pm 8.2 1.8 -7.1 33 5.5 WNW 19 41 10 22 - - 0.0
17/10:30pm - - - - - NW 20 37 11 20 - - 0.0
17/10:00pm - - - - - NW 20 39 11 21 - - 0.0
17/09:30pm - - - - - NW 20 39 11 21 - - 0.0
17/09:00pm - - - - - NW 20 35 11 19 - - 0.0
17/08:30pm - - - - - NW 20 37 11 20 - - 0.0
17/08:00pm - - - - - NNW 20 35 11 19 - - 0.0
17/07:30pm - - - - - NW 20 37 11 20 - - 0.0
17/07:00pm - - - - - NW 20 41 11 22 - - 0.0
17/06:30pm 8.9 2.3 -6.9 32 5.7 NW 20 35 11 19 - - 0.0
17/06:00pm 9.4 2.8 -6.8 31 5.9 NW 20 39 11 21 - - 0.0
17/05:30pm 9.6 3.2 -7.1 30 6.1 NW 19 35 10 19 - - 0.0
17/05:00pm 9.9 3.3 -6.8 30 6.1 NW 20 32 11 17 - - 0.0
17/04:30pm 10.5 3.9 -6.8 29 6.4 NW 20 39 11 21 - - 0.0
17/04:00pm 11.0 4.5 -6.3 29 6.5 NNW 20 39 11 21 - - 0.0
17/03:30pm 11.4 5.4 -6.4 28 6.7 NW 17 37 9 20 - - 0.0
17/03:00pm 11.7 4.4 -6.6 27 6.9 NW 24 54 13 29 - - 0.0
17/02:30pm 11.7 4.8 -6.2 28 6.8 NW 22 44 12 24 - - 0.0
17/02:00pm 11.7 5.4 -5.7 29 6.7 NW 19 37 10 20 - - 0.0
17/01:30pm 11.2 4.9 -5.7 30 6.5 NW 19 35 10 19 - - 0.0
17/01:00pm 10.8 3.9 -6.1 30 6.4 NW 22 46 12 25 - - 0.0
17/12:30pm 10.4 3.5 -6.0 31 6.2 NW 22 44 12 24 - - 0.0
17/12:00pm 10.1 3.8 -5.8 32 6.0 WNW 19 41 10 22 - - 0.0
17/11:30am 9.8 3.9 -6.1 32 5.9 NW 17 41 9 22 - - 0.0
17/11:00am 8.9 2.5 -6.5 33 5.6 WNW 19 39 10 21 - - 0.0
17/10:30am 8.4 2.5 -6.1 35 5.3 NW 17 39 9 21 - - 0.0
17/10:00am 7.9 2.0 -5.5 38 5.0 NW 17 32 9 17 - - 0.0
17/09:30am 6.9 1.4 -5.7 40 4.6 NW 15 30 8 16 - - 0.0
17/09:00am 6.2 0.7 -5.7 42 4.3 NW 15 30 8 16 - - 0.0
17/08:30am 5.4 -0.2 -5.9 44 4.0 NW 15 32 8 17 - - 0.0
17/08:00am 4.5 -1.4 -6.1 46 3.7 NW 17 32 9 17 - - 0.0
17/07:30am 4.1 -1.9 -6.2 47 3.6 WNW 17 35 9 19 - - 0.0
17/07:00am - - - - - NW 17 26 9 14 - - 0.0
17/06:30am - - - - - NW 15 32 8 17 - - 0.0
17/06:00am - - - - - WNW 15 30 8 16 - - 0.0
17/05:30am - - - - - WNW 15 28 8 15 - - 0.0
17/05:00am - - - - - WNW 17 26 9 14 - - 0.0
17/04:30am - - - - - WNW 17 30 9 16 - - 0.0
17/04:00am - - - - - WNW 19 37 10 20 - - 0.0
17/03:30am - - - - - WNW 15 28 8 15 - - 0.0
17/03:00am - - - - - WNW 13 30 7 16 - - 0.0
17/02:30am 3.7 -1.5 -6.0 49 3.4 WNW 13 32 7 17 - - 0.0
17/02:00am 3.6 -1.2 -6.4 48 3.4 NW 11 26 6 14 - - 0.0
17/01:30am 3.8 -1.4 -6.5 47 3.5 NW 13 32 7 17 - - 0.0
17/01:00am 3.9 -1.3 -6.4 47 3.5 NW 13 24 7 13 - - 0.0
17/12:30am 3.9 -1.7 -6.6 46 3.6 NW 15 28 8 15 - - 0.0
17/12:00am 3.9 -1.0 -6.6 46 3.6 NW 11 19 6 10 - - 0.0
 
Date/Time
EST
Temp
°C
App
Temp
°C
Dew
Point
°C
Rel
Hum
%
Delta-T
°C
Wind Press
QNH
hPa
Press
MSL
hPa
Rain since
9am
mm
Dir  Spd
km/h
Gust
km/h
Spd
kts
Gust
kts
16/11:30pm 3.9 -1.0 -6.9 45 3.7 NW 11 24 6 13 - - 0.0
16/11:00pm 4.0 -1.3 -6.8 45 3.7 NW 13 28 7 15 - - 0.0
16/10:30pm 4.0 -1.3 -6.8 45 3.7 NW 13 22 7 12 - - 0.0
16/10:00pm 3.8 -1.1 -6.7 46 3.6 NW 11 22 6 12 - - 0.0
16/09:30pm 4.0 -1.2 -6.6 46 3.6 NW 13 22 7 12 - - 0.0
16/09:00pm 3.5 -1.0 -6.7 47 3.5 NW 9 17 5 9 - - 0.0
16/08:30pm 3.4 -0.7 -6.3 49 3.3 NW 7 15 4 8 - - 0.0
16/08:00pm 3.6 -0.5 -6.4 48 3.4 NW 7 11 4 6 - - 0.0
16/07:30pm 3.8 -0.3 -6.5 47 3.5 NW 7 15 4 8 - - 0.0
16/07:00pm 3.8 -0.3 -6.5 47 3.5 NW 7 17 4 9 - - 0.0
16/06:30pm 4.0 0.1 -6.8 45 3.7 NW 6 13 3 7 - - 0.0
16/06:00pm 4.2 0.2 -7.2 43 3.9 NW 6 11 3 6 - - 0.0
16/05:30pm 4.3 0.3 -7.8 41 4.0 NW 6 13 3 7 - - 0.0
16/05:00pm 5.2 1.0 -7.6 39 4.4 WNW 7 15 4 8 - - 0.0
16/04:30pm 6.2 1.6 -7.4 37 4.7 WNW 9 22 5 12 - - 0.0
16/04:00pm 6.4 1.8 -7.6 36 4.8 W 9 17 5 9 - - 0.0
16/03:30pm 6.9 2.3 -7.9 34 5.1 WNW 9 22 5 12 - - 0.0
16/03:00pm 7.3 2.4 -7.1 35 5.1 W 11 20 6 11 - - 0.0
16/02:30pm 7.1 1.8 -6.9 36 5.0 W 13 32 7 17 - - 0.0
16/02:00pm 6.9 1.7 -5.7 40 4.6 W 13 20 7 11 - - 0.0
16/01:30pm 6.7 1.9 -5.6 41 4.5 WNW 11 24 6 13 - - 0.0
16/01:00pm 6.2 0.8 -4.8 45 4.1 W 15 26 8 14 - - 0.0
16/12:30pm 6.3 1.7 -4.2 47 3.9 W 11 24 6 13 - - 0.0
16/12:00pm 5.5 -0.3 -4.6 48 3.7 W 17 30 9 16 - - 0.0
16/11:30am - - - - - W 15 28 8 15 - - 0.0
16/11:00am - - - - - W 17 26 9 14 - - 0.0
16/10:30am - - - - - W 17 33 9 18 - - 0.0
16/10:00am - - - - - W 17 30 9 16 - - 0.0
16/09:30am - - - - - W 17 30 9 16 - - 0.0
16/09:00am - - - - - W 13 22 7 12 - - 0.0
16/08:30am - - - - - W 11 24 6 13 - - 0.0
16/08:00am - - - - - W 9 17 5 9 - - 0.0
16/07:30am - - - - - W 11 19 6 10 - - 0.0
16/07:00am - - - - - W 11 19 6 10 - - 0.0
16/06:30am - - - - - W 11 19 6 10 - - 0.0
16/06:00am - - - - - WNW 11 17 6 9 - - 0.0
16/05:30am - - - - - WNW 11 20 6 11 - - 0.0
16/05:00am - - - - - WNW 11 20 6 11 - - 0.0
16/04:30am - - - - - WNW 11 20 6 11 - - 0.0
16/04:00am - - - - - WNW 11 19 6 10 - - 0.0
16/03:30am - - - - - WNW 9 15 5 8 - - 0.0
16/03:00am - - - - - NW 9 20 5 11 - - 0.0
16/02:30am - - - - - NW 9 15 5 8 - - 0.0
16/02:00am - - - - - NW 7 13 4 7 - - 0.0
16/01:30am - - - - - NW 7 17 4 9 - - 0.0
16/01:00am - - - - - NW 7 13 4 7 - - 0.0
16/12:30am - - - - - NW 7 13 4 7 - - 0.0
16/12:00am - - - - - NNW 7 13 4 7 - - 0.0
 
Date/Time
EST
Temp
°C
App
Temp
°C
Dew
Point
°C
Rel
Hum
%
Delta-T
°C
Wind Press
QNH
hPa
Press
MSL
hPa
Rain since
9am
mm
Dir  Spd
km/h
Gust
km/h
Spd
kts
Gust
kts
15/11:30pm - - - - - NNW 7 11 4 6 - - 0.0
15/11:00pm - - - - - NNW 7 13 4 7 - - 0.0
15/10:30pm - - - - - NNW 7 9 4 5 - - 0.0
15/10:00pm - - - - - NW 6 9 3 5 - - 0.0
15/09:30pm - - - - - NW 4 7 2 4 - - 0.0
15/09:00pm - - - - - NW 6 7 3 4 - - 0.0
15/08:30pm 1.8 -2.1 -6.5 54 2.9 WNW 6 11 3 6 - - 0.0
15/08:00pm 1.7 -2.3 -7.3 51 3.1 WNW 6 11 3 6 - - 0.0
15/07:30pm 2.3 -1.7 -7.8 47 3.4 WNW 6 9 3 5 - - 0.0
15/07:00pm 2.3 -1.7 -8.1 46 3.5 WNW 6 9 3 5 - - 0.0
15/06:30pm 3.2 -1.0 -8.1 43 3.9 W 7 13 4 7 - - 0.0
15/06:00pm 3.2 -1.2 -10.4 36 4.4 WNW 7 13 4 7 - - 0.0
15/05:30pm 3.9 -0.6 -12.1 30 5.0 NW 7 11 4 6 - - 0.0
15/05:00pm 4.8 0.3 -12.1 28 5.4 NW 7 11 4 6 - - 0.0
15/04:30pm 6.2 1.3 -11.8 26 5.6 WNW 9 17 5 9 - - 0.0
15/04:00pm 6.9 1.6 -12.8 23 6.0 WNW 11 24 6 13 - - 0.0
15/03:30pm 7.8 2.8 -14.3 19 6.6 NW 9 19 5 10 - - 0.0
15/03:00pm 8.4 2.1 -15.9 16 7.1 WNW 15 22 8 12 - - 0.0
15/02:30pm 9.3 3.9 -13.1 19 7.1 WNW 11 26 6 14 - - 0.0
15/02:00pm 9.7 4.4 -11.5 21 7.0 NW 11 20 6 11 - - 0.0
15/01:30pm 9.0 3.6 -13.4 19 7.0 WNW 11 19 6 10 - - 0.0
15/01:00pm 8.4 2.6 -15.2 17 7.0 NW 13 24 7 13 - - 0.0
15/12:30pm 8.0 2.1 -16.2 16 7.0 WNW 13 28 7 15 - - 0.0
15/12:00pm 8.0 2.6 -13.6 20 6.6 WNW 11 24 6 13 - - 0.0
15/11:30am - - - - - NW 11 24 6 13 - - 0.0
15/11:00am 7.6 2.4 -11.1 25 6.0 NW 11 20 6 11 - - 0.0
15/10:30am - - - - - WNW 9 15 5 8 - - 0.0
15/10:00am - - - - - NW 9 20 5 11 - - 0.0
15/09:30am - - - - - NW 7 19 4 10 - - 0.0
15/09:00am - - - - - WNW 7 17 4 9 - - 0.0
15/08:30am - - - - - WNW 6 11 3 6 - - 0.0
15/08:00am - - - - - WNW 6 9 3 5 - - 0.0
15/07:30am - - - - - WNW 6 9 3 5 - - 0.0
15/07:00am - - - - - WNW 4 11 2 6 - - 0.0
15/06:30am - - - - - WNW 6 11 3 6 - - 0.0
15/06:00am - - - - - NW 6 9 3 5 - - 0.0
15/05:30am - - - - - NW 6 9 3 5 - - 0.0
15/05:00am - - - - - NNW 4 6 2 3 - - 0.0
15/04:30am - - - - - NNW 4 6 2 3 - - 0.0
15/04:00am - - - - - WNW 2 4 1 2 - - 0.0
15/03:30am - - - - - CALM 0 0 0 0 - - 0.0
15/03:00am - - - - - W 4 7 2 4 - - 0.0

Other Formats:

Comma delimited format used in spreadsheet applications
http://www.bom.gov.au/fwo/IDN60801/IDN60801.94754.axf

JavaScript Object Notation format (JSON) in row-major order
http://www.bom.gov.au/fwo/IDN60801/IDN60801.94754.json